sensor_id;sensor_type;location;lat;lon;timestamp;P1;durP1;ratioP1;P2;durP2;ratioP2
75459;SDS011;64039;53.060;9.342;2022-11-20T00:02:22;15.90;;;8.68;;
75459;SDS011;64039;53.060;9.342;2022-11-20T00:04:48;14.98;;;8.20;;
75459;SDS011;64039;53.060;9.342;2022-11-20T00:07:13;16.80;;;9.75;;
75459;SDS011;64039;53.060;9.342;2022-11-20T00:09:38;14.52;;;8.68;;
75459;SDS011;64039;53.060;9.342;2022-11-20T00:12:04;17.60;;;9.02;;
75459;SDS011;64039;53.060;9.342;2022-11-20T00:14:29;17.48;;;9.48;;
75459;SDS011;64039;53.060;9.342;2022-11-20T00:16:55;17.45;;;9.10;;
75459;SDS011;64039;53.060;9.342;2022-11-20T00:19:20;17.90;;;9.90;;
75459;SDS011;64039;53.060;9.342;2022-11-20T00:21:46;15.68;;;8.88;;
75459;SDS011;64039;53.060;9.342;2022-11-20T00:24:12;18.90;;;9.25;;
75459;SDS011;64039;53.060;9.342;2022-11-20T00:26:37;15.27;;;8.95;;
75459;SDS011;64039;53.060;9.342;2022-11-20T00:29:03;15.70;;;8.82;;
75459;SDS011;64039;53.060;9.342;2022-11-20T00:31:29;15.35;;;9.07;;
75459;SDS011;64039;53.060;9.342;2022-11-20T00:33:55;17.42;;;9.30;;
75459;SDS011;64039;53.060;9.342;2022-11-20T00:36:22;15.45;;;8.20;;
75459;SDS011;64039;53.060;9.342;2022-11-20T00:38:58;16.40;;;8.82;;
75459;SDS011;64039;53.060;9.342;2022-11-20T00:41:24;17.70;;;9.23;;
75459;SDS011;64039;53.060;9.342;2022-11-20T00:43:51;15.98;;;9.50;;
75459;SDS011;64039;53.060;9.342;2022-11-20T00:46:19;16.23;;;9.25;;
75459;SDS011;64039;53.060;9.342;2022-11-20T00:48:46;17.45;;;9.05;;
75459;SDS011;64039;53.060;9.342;2022-11-20T00:51:15;15.45;;;8.02;;
75459;SDS011;64039;53.060;9.342;2022-11-20T00:53:44;17.25;;;8.65;;
75459;SDS011;64039;53.060;9.342;2022-11-20T00:56:10;16.80;;;9.05;;
75459;SDS011;64039;53.060;9.342;2022-11-20T00:58:38;15.02;;;8.07;;
75459;SDS011;64039;53.060;9.342;2022-11-20T01:01:10;14.32;;;8.30;;
75459;SDS011;64039;53.060;9.342;2022-11-20T01:03:37;17.77;;;9.05;;
75459;SDS011;64039;53.060;9.342;2022-11-20T01:06:09;14.82;;;8.45;;
75459;SDS011;64039;53.060;9.342;2022-11-20T01:08:36;15.70;;;8.52;;
75459;SDS011;64039;53.060;9.342;2022-11-20T01:11:04;17.02;;;9.23;;
75459;SDS011;64039;53.060;9.342;2022-11-20T01:13:31;16.35;;;8.95;;
75459;SDS011;64039;53.060;9.342;2022-11-20T01:16:04;14.32;;;8.40;;
75459;SDS011;64039;53.060;9.342;2022-11-20T01:18:36;14.70;;;8.43;;
75459;SDS011;64039;53.060;9.342;2022-11-20T01:21:38;13.85;;;8.18;;
75459;SDS011;64039;53.060;9.342;2022-11-20T01:23:57;14.40;;;8.60;;
75459;SDS011;64039;53.060;9.342;2022-11-20T01:26:26;15.45;;;8.73;;
75459;SDS011;64039;53.060;9.342;2022-11-20T01:28:53;14.27;;;8.13;;
75459;SDS011;64039;53.060;9.342;2022-11-20T01:31:23;14.20;;;8.77;;
75459;SDS011;64039;53.060;9.342;2022-11-20T01:33:53;15.40;;;8.57;;
75459;SDS011;64039;53.060;9.342;2022-11-20T01:36:20;15.13;;;8.35;;
75459;SDS011;64039;53.060;9.342;2022-11-20T01:38:47;14.32;;;8.52;;
75459;SDS011;64039;53.060;9.342;2022-11-20T01:41:16;16.15;;;8.77;;
75459;SDS011;64039;53.060;9.342;2022-11-20T01:44:00;17.10;;;8.80;;
75459;SDS011;64039;53.060;9.342;2022-11-20T01:46:26;14.82;;;8.70;;
75459;SDS011;64039;53.060;9.342;2022-11-20T01:49:14;16.08;;;8.25;;
75459;SDS011;64039;53.060;9.342;2022-11-20T01:54:22;14.52;;;8.07;;
75459;SDS011;64039;53.060;9.342;2022-11-20T01:56:56;17.38;;;9.10;;
75459;SDS011;64039;53.060;9.342;2022-11-20T01:59:25;16.30;;;8.60;;
75459;SDS011;64039;53.060;9.342;2022-11-20T02:01:53;14.68;;;8.23;;
75459;SDS011;64039;53.060;9.342;2022-11-20T02:04:19;17.55;;;8.23;;
75459;SDS011;64039;53.060;9.342;2022-11-20T02:06:47;17.15;;;8.57;;
75459;SDS011;64039;53.060;9.342;2022-11-20T02:09:16;14.93;;;7.55;;
75459;SDS011;64039;53.060;9.342;2022-11-20T02:11:42;15.57;;;7.70;;
75459;SDS011;64039;53.060;9.342;2022-11-20T02:14:07;14.55;;;7.82;;
75459;SDS011;64039;53.060;9.342;2022-11-20T02:16:35;15.35;;;8.25;;
75459;SDS011;64039;53.060;9.342;2022-11-20T02:19:04;15.15;;;8.27;;
75459;SDS011;64039;53.060;9.342;2022-11-20T02:24:01;14.75;;;7.88;;
75459;SDS011;64039;53.060;9.342;2022-11-20T02:26:34;17.60;;;7.80;;
75459;SDS011;64039;53.060;9.342;2022-11-20T02:29:25;13.23;;;7.35;;
75459;SDS011;64039;53.060;9.342;2022-11-20T02:31:53;15.50;;;8.35;;
75459;SDS011;64039;53.060;9.342;2022-11-20T02:34:20;15.77;;;7.32;;
75459;SDS011;64039;53.060;9.342;2022-11-20T02:36:46;14.80;;;7.95;;
75459;SDS011;64039;53.060;9.342;2022-11-20T02:39:13;14.32;;;8.15;;
75459;SDS011;64039;53.060;9.342;2022-11-20T02:41:41;15.23;;;7.70;;
75459;SDS011;64039;53.060;9.342;2022-11-20T02:44:07;14.55;;;8.50;;
75459;SDS011;64039;53.060;9.342;2022-11-20T02:46:33;12.68;;;7.63;;
75459;SDS011;64039;53.060;9.342;2022-11-20T02:49:00;12.63;;;7.95;;
75459;SDS011;64039;53.060;9.342;2022-11-20T02:51:26;13.05;;;7.25;;
75459;SDS011;64039;53.060;9.342;2022-11-20T02:53:52;13.60;;;7.32;;
75459;SDS011;64039;53.060;9.342;2022-11-20T02:56:17;14.38;;;8.05;;
75459;SDS011;64039;53.060;9.342;2022-11-20T02:58:42;17.25;;;8.60;;
75459;SDS011;64039;53.060;9.342;2022-11-20T03:01:08;16.50;;;8.48;;
75459;SDS011;64039;53.060;9.342;2022-11-20T03:03:33;16.35;;;8.93;;
75459;SDS011;64039;53.060;9.342;2022-11-20T03:05:59;17.38;;;9.25;;
75459;SDS011;64039;53.060;9.342;2022-11-20T03:08:25;15.73;;;8.90;;
75459;SDS011;64039;53.060;9.342;2022-11-20T03:10:50;15.32;;;8.70;;
75459;SDS011;64039;53.060;9.342;2022-11-20T03:13:17;16.55;;;9.10;;
75459;SDS011;64039;53.060;9.342;2022-11-20T03:15:42;15.60;;;8.70;;
75459;SDS011;64039;53.060;9.342;2022-11-20T03:18:07;17.05;;;9.07;;
75459;SDS011;64039;53.060;9.342;2022-11-20T03:20:33;14.80;;;8.25;;
75459;SDS011;64039;53.060;9.342;2022-11-20T03:22:59;12.40;;;7.75;;
75459;SDS011;64039;53.060;9.342;2022-11-20T03:25:25;12.57;;;7.60;;
75459;SDS011;64039;53.060;9.342;2022-11-20T03:27:51;15.02;;;8.02;;
75459;SDS011;64039;53.060;9.342;2022-11-20T03:30:17;13.40;;;7.88;;
75459;SDS011;64039;53.060;9.342;2022-11-20T03:32:43;12.90;;;7.88;;
75459;SDS011;64039;53.060;9.342;2022-11-20T03:35:08;15.88;;;8.35;;
75459;SDS011;64039;53.060;9.342;2022-11-20T03:37:34;18.20;;;9.15;;
75459;SDS011;64039;53.060;9.342;2022-11-20T03:39:59;13.85;;;8.55;;
75459;SDS011;64039;53.060;9.342;2022-11-20T03:42:25;17.05;;;9.52;;
75459;SDS011;64039;53.060;9.342;2022-11-20T03:45:11;17.02;;;8.60;;
75459;SDS011;64039;53.060;9.342;2022-11-20T03:47:37;19.55;;;9.65;;
75459;SDS011;64039;53.060;9.342;2022-11-20T03:50:03;16.67;;;8.98;;
75459;SDS011;64039;53.060;9.342;2022-11-20T03:52:28;18.13;;;9.55;;
75459;SDS011;64039;53.060;9.342;2022-11-20T03:54:54;19.23;;;9.90;;
75459;SDS011;64039;53.060;9.342;2022-11-20T03:57:19;16.88;;;9.73;;
75459;SDS011;64039;53.060;9.342;2022-11-20T03:59:45;16.48;;;9.65;;
75459;SDS011;64039;53.060;9.342;2022-11-20T04:02:10;21.10;;;10.10;;
75459;SDS011;64039;53.060;9.342;2022-11-20T04:04:36;17.60;;;9.57;;
75459;SDS011;64039;53.060;9.342;2022-11-20T04:07:01;18.10;;;9.40;;
75459;SDS011;64039;53.060;9.342;2022-11-20T04:09:27;20.23;;;10.02;;
75459;SDS011;64039;53.060;9.342;2022-11-20T04:11:53;18.42;;;9.50;;
75459;SDS011;64039;53.060;9.342;2022-11-20T04:14:18;18.02;;;9.70;;
75459;SDS011;64039;53.060;9.342;2022-11-20T04:16:44;16.40;;;9.52;;
75459;SDS011;64039;53.060;9.342;2022-11-20T04:19:10;17.13;;;9.60;;
75459;SDS011;64039;53.060;9.342;2022-11-20T04:21:40;20.15;;;10.15;;
75459;SDS011;64039;53.060;9.342;2022-11-20T04:24:06;16.88;;;9.70;;
75459;SDS011;64039;53.060;9.342;2022-11-20T04:26:32;18.13;;;9.90;;
75459;SDS011;64039;53.060;9.342;2022-11-20T04:28:58;19.77;;;9.57;;
75459;SDS011;64039;53.060;9.342;2022-11-20T04:31:25;20.15;;;9.88;;
75459;SDS011;64039;53.060;9.342;2022-11-20T04:33:53;17.83;;;9.15;;
75459;SDS011;64039;53.060;9.342;2022-11-20T04:36:19;20.15;;;10.70;;
75459;SDS011;64039;53.060;9.342;2022-11-20T04:38:52;20.08;;;9.80;;
75459;SDS011;64039;53.060;9.342;2022-11-20T04:41:19;20.27;;;10.32;;
75459;SDS011;64039;53.060;9.342;2022-11-20T04:43:47;19.92;;;9.90;;
75459;SDS011;64039;53.060;9.342;2022-11-20T04:46:17;18.55;;;9.57;;
75459;SDS011;64039;53.060;9.342;2022-11-20T04:48:43;18.33;;;9.65;;
75459;SDS011;64039;53.060;9.342;2022-11-20T04:51:09;18.92;;;10.48;;
75459;SDS011;64039;53.060;9.342;2022-11-20T04:53:35;21.70;;;10.98;;
75459;SDS011;64039;53.060;9.342;2022-11-20T04:56:01;18.20;;;9.85;;
75459;SDS011;64039;53.060;9.342;2022-11-20T04:58:31;20.35;;;10.73;;
75459;SDS011;64039;53.060;9.342;2022-11-20T05:01:03;20.35;;;10.45;;
75459;SDS011;64039;53.060;9.342;2022-11-20T05:03:34;17.00;;;9.57;;
75459;SDS011;64039;53.060;9.342;2022-11-20T05:06:01;21.00;;;11.07;;
75459;SDS011;64039;53.060;9.342;2022-11-20T05:08:28;19.90;;;9.85;;
75459;SDS011;64039;53.060;9.342;2022-11-20T05:10:58;18.00;;;9.55;;
75459;SDS011;64039;53.060;9.342;2022-11-20T05:13:26;18.17;;;9.90;;
75459;SDS011;64039;53.060;9.342;2022-11-20T05:15:52;18.38;;;9.63;;
75459;SDS011;64039;53.060;9.342;2022-11-20T05:18:17;21.02;;;9.93;;
75459;SDS011;64039;53.060;9.342;2022-11-20T05:20:42;18.52;;;9.85;;
75459;SDS011;64039;53.060;9.342;2022-11-20T05:23:08;20.48;;;10.50;;
75459;SDS011;64039;53.060;9.342;2022-11-20T05:25:33;18.85;;;9.88;;
75459;SDS011;64039;53.060;9.342;2022-11-20T05:27:59;17.77;;;10.23;;
75459;SDS011;64039;53.060;9.342;2022-11-20T05:30:24;20.88;;;10.70;;
75459;SDS011;64039;53.060;9.342;2022-11-20T05:32:49;19.52;;;10.02;;
75459;SDS011;64039;53.060;9.342;2022-11-20T05:35:15;19.90;;;9.70;;
75459;SDS011;64039;53.060;9.342;2022-11-20T05:37:40;19.45;;;10.35;;
75459;SDS011;64039;53.060;9.342;2022-11-20T05:40:06;20.85;;;9.60;;
75459;SDS011;64039;53.060;9.342;2022-11-20T05:42:32;21.63;;;10.52;;
75459;SDS011;64039;53.060;9.342;2022-11-20T05:44:58;22.67;;;10.65;;
75459;SDS011;64039;53.060;9.342;2022-11-20T05:47:25;18.92;;;9.93;;
75459;SDS011;64039;53.060;9.342;2022-11-20T05:49:51;23.10;;;10.93;;
75459;SDS011;64039;53.060;9.342;2022-11-20T05:52:16;18.83;;;10.23;;
75459;SDS011;64039;53.060;9.342;2022-11-20T05:54:42;19.80;;;9.90;;
75459;SDS011;64039;53.060;9.342;2022-11-20T05:57:07;19.65;;;10.00;;
75459;SDS011;64039;53.060;9.342;2022-11-20T05:59:33;18.20;;;10.07;;
75459;SDS011;64039;53.060;9.342;2022-11-20T06:01:58;18.33;;;9.98;;
75459;SDS011;64039;53.060;9.342;2022-11-20T06:04:23;19.55;;;9.43;;
75459;SDS011;64039;53.060;9.342;2022-11-20T06:06:49;18.88;;;9.85;;
75459;SDS011;64039;53.060;9.342;2022-11-20T06:09:14;19.13;;;9.98;;
75459;SDS011;64039;53.060;9.342;2022-11-20T06:11:40;18.63;;;9.57;;
75459;SDS011;64039;53.060;9.342;2022-11-20T06:14:05;18.17;;;10.07;;
75459;SDS011;64039;53.060;9.342;2022-11-20T06:16:31;18.27;;;9.20;;
75459;SDS011;64039;53.060;9.342;2022-11-20T06:18:56;19.55;;;9.73;;
75459;SDS011;64039;53.060;9.342;2022-11-20T06:21:22;18.42;;;9.80;;
75459;SDS011;64039;53.060;9.342;2022-11-20T06:23:48;21.02;;;10.25;;
75459;SDS011;64039;53.060;9.342;2022-11-20T06:26:16;20.08;;;9.57;;
75459;SDS011;64039;53.060;9.342;2022-11-20T06:28:43;19.48;;;10.07;;
75459;SDS011;64039;53.060;9.342;2022-11-20T06:31:10;17.63;;;9.05;;
75459;SDS011;64039;53.060;9.342;2022-11-20T06:33:38;20.20;;;9.88;;
75459;SDS011;64039;53.060;9.342;2022-11-20T06:36:04;18.80;;;10.23;;
75459;SDS011;64039;53.060;9.342;2022-11-20T06:38:29;18.70;;;10.10;;
75459;SDS011;64039;53.060;9.342;2022-11-20T06:40:55;19.00;;;9.82;;
75459;SDS011;64039;53.060;9.342;2022-11-20T06:43:21;19.63;;;10.68;;
75459;SDS011;64039;53.060;9.342;2022-11-20T06:45:54;18.83;;;9.82;;
75459;SDS011;64039;53.060;9.342;2022-11-20T06:48:21;17.60;;;9.55;;
75459;SDS011;64039;53.060;9.342;2022-11-20T06:50:47;19.55;;;9.63;;
75459;SDS011;64039;53.060;9.342;2022-11-20T06:53:12;19.08;;;9.77;;
75459;SDS011;64039;53.060;9.342;2022-11-20T06:55:41;17.50;;;8.95;;
75459;SDS011;64039;53.060;9.342;2022-11-20T06:58:08;18.67;;;9.70;;
75459;SDS011;64039;53.060;9.342;2022-11-20T07:00:34;16.65;;;9.18;;
75459;SDS011;64039;53.060;9.342;2022-11-20T07:03:07;23.00;;;11.05;;
75459;SDS011;64039;53.060;9.342;2022-11-20T07:05:35;20.45;;;10.43;;
75459;SDS011;64039;53.060;9.342;2022-11-20T07:08:01;16.42;;;9.02;;
75459;SDS011;64039;53.060;9.342;2022-11-20T07:10:27;17.05;;;8.75;;
75459;SDS011;64039;53.060;9.342;2022-11-20T07:12:52;16.35;;;9.10;;
75459;SDS011;64039;53.060;9.342;2022-11-20T07:15:19;18.00;;;9.02;;
75459;SDS011;64039;53.060;9.342;2022-11-20T07:17:45;15.27;;;9.05;;
75459;SDS011;64039;53.060;9.342;2022-11-20T07:20:11;18.00;;;9.60;;
75459;SDS011;64039;53.060;9.342;2022-11-20T07:22:37;17.50;;;9.63;;
75459;SDS011;64039;53.060;9.342;2022-11-20T07:25:02;18.20;;;9.98;;
75459;SDS011;64039;53.060;9.342;2022-11-20T07:27:29;17.38;;;8.80;;
75459;SDS011;64039;53.060;9.342;2022-11-20T07:29:55;15.25;;;8.90;;
75459;SDS011;64039;53.060;9.342;2022-11-20T07:32:20;19.80;;;10.07;;
75459;SDS011;64039;53.060;9.342;2022-11-20T07:34:46;17.85;;;9.85;;
75459;SDS011;64039;53.060;9.342;2022-11-20T07:37:11;17.67;;;10.30;;
75459;SDS011;64039;53.060;9.342;2022-11-20T07:39:37;15.38;;;8.60;;
75459;SDS011;64039;53.060;9.342;2022-11-20T07:42:02;17.48;;;9.05;;
75459;SDS011;64039;53.060;9.342;2022-11-20T07:44:28;15.15;;;8.50;;
75459;SDS011;64039;53.060;9.342;2022-11-20T07:46:53;18.80;;;8.95;;
75459;SDS011;64039;53.060;9.342;2022-11-20T07:49:18;17.77;;;9.07;;
75459;SDS011;64039;53.060;9.342;2022-11-20T07:51:44;15.63;;;8.43;;
75459;SDS011;64039;53.060;9.342;2022-11-20T07:54:09;15.23;;;7.80;;
75459;SDS011;64039;53.060;9.342;2022-11-20T07:56:35;13.82;;;7.90;;
75459;SDS011;64039;53.060;9.342;2022-11-20T07:59:00;15.15;;;7.95;;
75459;SDS011;64039;53.060;9.342;2022-11-20T08:01:26;16.27;;;8.40;;
75459;SDS011;64039;53.060;9.342;2022-11-20T08:03:51;16.67;;;8.65;;
75459;SDS011;64039;53.060;9.342;2022-11-20T08:06:17;13.55;;;7.57;;
75459;SDS011;64039;53.060;9.342;2022-11-20T08:08:44;14.52;;;8.38;;
75459;SDS011;64039;53.060;9.342;2022-11-20T08:11:10;14.13;;;7.25;;
75459;SDS011;64039;53.060;9.342;2022-11-20T08:13:54;14.95;;;7.63;;
75459;SDS011;64039;53.060;9.342;2022-11-20T08:16:38;13.45;;;7.07;;
75459;SDS011;64039;53.060;9.342;2022-11-20T08:19:09;13.75;;;7.60;;
75459;SDS011;64039;53.060;9.342;2022-11-20T08:21:35;14.77;;;7.63;;
75459;SDS011;64039;53.060;9.342;2022-11-20T08:24:01;14.95;;;7.22;;
75459;SDS011;64039;53.060;9.342;2022-11-20T08:26:27;13.60;;;7.20;;
75459;SDS011;64039;53.060;9.342;2022-11-20T08:28:53;12.60;;;6.70;;
75459;SDS011;64039;53.060;9.342;2022-11-20T08:31:19;19.95;;;8.88;;
75459;SDS011;64039;53.060;9.342;2022-11-20T08:33:45;13.52;;;6.75;;
75459;SDS011;64039;53.060;9.342;2022-11-20T08:36:11;13.63;;;7.25;;
75459;SDS011;64039;53.060;9.342;2022-11-20T08:38:37;14.52;;;6.70;;
75459;SDS011;64039;53.060;9.342;2022-11-20T08:41:03;14.82;;;6.60;;
75459;SDS011;64039;53.060;9.342;2022-11-20T08:43:47;16.90;;;7.20;;
75459;SDS011;64039;53.060;9.342;2022-11-20T08:46:13;10.98;;;6.22;;
75459;SDS011;64039;53.060;9.342;2022-11-20T08:48:40;11.63;;;6.35;;
75459;SDS011;64039;53.060;9.342;2022-11-20T08:51:06;13.18;;;6.50;;
75459;SDS011;64039;53.060;9.342;2022-11-20T08:53:31;12.13;;;6.75;;
75459;SDS011;64039;53.060;9.342;2022-11-20T08:55:57;11.50;;;5.90;;
75459;SDS011;64039;53.060;9.342;2022-11-20T08:58:23;12.15;;;6.72;;
75459;SDS011;64039;53.060;9.342;2022-11-20T09:00:49;11.50;;;5.93;;
75459;SDS011;64039;53.060;9.342;2022-11-20T09:03:14;12.27;;;6.22;;
75459;SDS011;64039;53.060;9.342;2022-11-20T09:05:40;13.10;;;6.38;;
75459;SDS011;64039;53.060;9.342;2022-11-20T09:08:05;12.10;;;6.22;;
75459;SDS011;64039;53.060;9.342;2022-11-20T09:10:30;14.15;;;7.18;;
75459;SDS011;64039;53.060;9.342;2022-11-20T09:12:57;11.30;;;6.32;;
75459;SDS011;64039;53.060;9.342;2022-11-20T09:15:23;14.93;;;6.78;;
75459;SDS011;64039;53.060;9.342;2022-11-20T09:17:53;10.15;;;5.85;;
75459;SDS011;64039;53.060;9.342;2022-11-20T09:20:23;11.07;;;6.15;;
75459;SDS011;64039;53.060;9.342;2022-11-20T09:22:49;10.50;;;5.85;;
75459;SDS011;64039;53.060;9.342;2022-11-20T09:25:15;13.07;;;6.60;;
75459;SDS011;64039;53.060;9.342;2022-11-20T09:27:40;12.20;;;6.30;;
75459;SDS011;64039;53.060;9.342;2022-11-20T09:30:11;13.65;;;6.38;;
75459;SDS011;64039;53.060;9.342;2022-11-20T09:32:41;10.23;;;5.90;;
75459;SDS011;64039;53.060;9.342;2022-11-20T09:35:07;11.18;;;6.28;;
75459;SDS011;64039;53.060;9.342;2022-11-20T09:37:34;11.52;;;6.18;;
75459;SDS011;64039;53.060;9.342;2022-11-20T09:39:59;12.65;;;6.03;;
75459;SDS011;64039;53.060;9.342;2022-11-20T09:42:39;12.30;;;5.97;;
75459;SDS011;64039;53.060;9.342;2022-11-20T09:45:24;11.35;;;6.03;;
75459;SDS011;64039;53.060;9.342;2022-11-20T09:54:15;11.13;;;5.88;;
75459;SDS011;64039;53.060;9.342;2022-11-20T09:56:44;11.18;;;6.50;;
75459;SDS011;64039;53.060;9.342;2022-11-20T09:59:57;13.05;;;7.22;;
75459;SDS011;64039;53.060;9.342;2022-11-20T10:02:16;13.68;;;6.40;;
75459;SDS011;64039;53.060;9.342;2022-11-20T10:10:46;15.82;;;6.30;;
75459;SDS011;64039;53.060;9.342;2022-11-20T10:19:27;10.70;;;6.07;;
75459;SDS011;64039;53.060;9.342;2022-11-20T10:31:09;11.48;;;6.20;;
75459;SDS011;64039;53.060;9.342;2022-11-20T10:33:41;12.32;;;5.93;;
75459;SDS011;64039;53.060;9.342;2022-11-20T10:36:16;11.77;;;6.35;;
75459;SDS011;64039;53.060;9.342;2022-11-20T10:42:10;11.27;;;6.33;;
75459;SDS011;64039;53.060;9.342;2022-11-20T10:44:40;11.15;;;6.03;;
75459;SDS011;64039;53.060;9.342;2022-11-20T10:47:27;13.50;;;6.05;;
75459;SDS011;64039;53.060;9.342;2022-11-20T10:49:55;10.60;;;6.32;;
75459;SDS011;64039;53.060;9.342;2022-11-20T10:55:33;11.32;;;6.72;;
75459;SDS011;64039;53.060;9.342;2022-11-20T11:01:02;11.55;;;6.90;;
75459;SDS011;64039;53.060;9.342;2022-11-20T11:03:38;12.25;;;7.00;;
75459;SDS011;64039;53.060;9.342;2022-11-20T11:06:10;13.25;;;6.57;;
75459;SDS011;64039;53.060;9.342;2022-11-20T11:08:57;14.43;;;7.10;;
75459;SDS011;64039;53.060;9.342;2022-11-20T11:11:27;15.73;;;7.13;;
75459;SDS011;64039;53.060;9.342;2022-11-20T11:14:09;14.65;;;6.85;;
75459;SDS011;64039;53.060;9.342;2022-11-20T11:16:51;10.57;;;6.35;;
75459;SDS011;64039;53.060;9.342;2022-11-20T11:19:19;11.23;;;6.88;;
75459;SDS011;64039;53.060;9.342;2022-11-20T11:21:54;12.88;;;7.15;;
75459;SDS011;64039;53.060;9.342;2022-11-20T11:24:29;12.27;;;6.95;;
75459;SDS011;64039;53.060;9.342;2022-11-20T11:29:29;14.15;;;7.00;;
75459;SDS011;64039;53.060;9.342;2022-11-20T11:32:11;12.80;;;7.03;;
75459;SDS011;64039;53.060;9.342;2022-11-20T11:34:40;12.88;;;7.00;;
75459;SDS011;64039;53.060;9.342;2022-11-20T11:37:10;13.95;;;7.15;;
75459;SDS011;64039;53.060;9.342;2022-11-20T11:39:42;12.88;;;6.97;;
75459;SDS011;64039;53.060;9.342;2022-11-20T11:42:11;13.93;;;7.60;;
75459;SDS011;64039;53.060;9.342;2022-11-20T11:44:44;12.07;;;6.90;;
75459;SDS011;64039;53.060;9.342;2022-11-20T11:47:36;12.93;;;7.40;;
75459;SDS011;64039;53.060;9.342;2022-11-20T11:50:14;14.18;;;7.30;;
75459;SDS011;64039;53.060;9.342;2022-11-20T11:52:43;13.13;;;7.20;;
75459;SDS011;64039;53.060;9.342;2022-11-20T11:55:12;14.93;;;7.63;;
75459;SDS011;64039;53.060;9.342;2022-11-20T11:57:56;13.10;;;7.50;;
75459;SDS011;64039;53.060;9.342;2022-11-20T12:00:33;12.80;;;7.15;;
75459;SDS011;64039;53.060;9.342;2022-11-20T12:05:50;13.38;;;7.13;;
75459;SDS011;64039;53.060;9.342;2022-11-20T12:08:45;12.23;;;6.72;;
75459;SDS011;64039;53.060;9.342;2022-11-20T12:16:23;12.55;;;6.93;;
75459;SDS011;64039;53.060;9.342;2022-11-20T12:18:51;11.50;;;6.50;;
75459;SDS011;64039;53.060;9.342;2022-11-20T12:43:45;13.82;;;7.78;;
75459;SDS011;64039;53.060;9.342;2022-11-20T12:46:52;14.45;;;8.10;;
75459;SDS011;64039;53.060;9.342;2022-11-20T12:49:57;13.98;;;8.80;;
75459;SDS011;64039;53.060;9.342;2022-11-20T13:01:04;14.57;;;8.02;;
75459;SDS011;64039;53.060;9.342;2022-11-20T13:04:07;13.90;;;8.20;;
75459;SDS011;64039;53.060;9.342;2022-11-20T13:06:33;13.75;;;8.18;;
75459;SDS011;64039;53.060;9.342;2022-11-20T13:09:00;12.45;;;7.43;;
75459;SDS011;64039;53.060;9.342;2022-11-20T13:11:32;14.10;;;7.90;;
75459;SDS011;64039;53.060;9.342;2022-11-20T13:19:52;15.45;;;7.85;;
75459;SDS011;64039;53.060;9.342;2022-11-20T13:22:26;15.52;;;8.25;;
75459;SDS011;64039;53.060;9.342;2022-11-20T13:24:53;15.70;;;9.00;;
75459;SDS011;64039;53.060;9.342;2022-11-20T13:27:20;15.52;;;8.38;;
75459;SDS011;64039;53.060;9.342;2022-11-20T13:30:10;15.65;;;8.48;;
75459;SDS011;64039;53.060;9.342;2022-11-20T13:32:49;14.07;;;8.25;;
75459;SDS011;64039;53.060;9.342;2022-11-20T13:35:25;14.73;;;8.57;;
75459;SDS011;64039;53.060;9.342;2022-11-20T13:38:14;14.10;;;8.18;;
75459;SDS011;64039;53.060;9.342;2022-11-20T13:45:58;16.90;;;8.93;;
75459;SDS011;64039;53.060;9.342;2022-11-20T13:48:41;16.35;;;9.20;;
75459;SDS011;64039;53.060;9.342;2022-11-20T14:02:17;16.92;;;10.52;;
75459;SDS011;64039;53.060;9.342;2022-11-20T14:04:45;18.73;;;10.93;;
75459;SDS011;64039;53.060;9.342;2022-11-20T14:07:13;14.98;;;9.50;;
75459;SDS011;64039;53.060;9.342;2022-11-20T14:09:49;15.88;;;8.88;;
75459;SDS011;64039;53.060;9.342;2022-11-20T14:12:21;14.80;;;9.63;;
75459;SDS011;64039;53.060;9.342;2022-11-20T14:14:57;13.48;;;8.20;;
75459;SDS011;64039;53.060;9.342;2022-11-20T14:17:24;12.30;;;7.70;;
75459;SDS011;64039;53.060;9.342;2022-11-20T14:19:59;12.48;;;7.20;;
75459;SDS011;64039;53.060;9.342;2022-11-20T14:22:31;31.60;;;11.00;;
75459;SDS011;64039;53.060;9.342;2022-11-20T14:27:44;14.02;;;8.10;;
75459;SDS011;64039;53.060;9.342;2022-11-20T14:30:14;15.65;;;8.38;;
75459;SDS011;64039;53.060;9.342;2022-11-20T14:32:43;16.90;;;9.43;;
75459;SDS011;64039;53.060;9.342;2022-11-20T14:35:15;16.13;;;8.77;;
75459;SDS011;64039;53.060;9.342;2022-11-20T14:37:50;14.52;;;7.85;;
75459;SDS011;64039;53.060;9.342;2022-11-20T14:40:23;14.88;;;7.72;;
75459;SDS011;64039;53.060;9.342;2022-11-20T14:42:55;13.70;;;7.57;;
75459;SDS011;64039;53.060;9.342;2022-11-20T14:45:22;16.75;;;8.82;;
75459;SDS011;64039;53.060;9.342;2022-11-20T14:47:49;13.57;;;8.13;;
75459;SDS011;64039;53.060;9.342;2022-11-20T14:50:27;15.27;;;8.23;;
75459;SDS011;64039;53.060;9.342;2022-11-20T14:52:56;13.32;;;8.05;;
75459;SDS011;64039;53.060;9.342;2022-11-20T14:55:32;14.00;;;8.27;;
75459;SDS011;64039;53.060;9.342;2022-11-20T14:58:03;14.65;;;7.95;;
75459;SDS011;64039;53.060;9.342;2022-11-20T15:00:31;13.20;;;7.57;;
75459;SDS011;64039;53.060;9.342;2022-11-20T15:03:00;12.85;;;8.30;;
75459;SDS011;64039;53.060;9.342;2022-11-20T15:05:36;12.90;;;7.40;;
75459;SDS011;64039;53.060;9.342;2022-11-20T15:08:10;12.98;;;7.75;;
75459;SDS011;64039;53.060;9.342;2022-11-20T15:10:37;12.70;;;7.85;;
75459;SDS011;64039;53.060;9.342;2022-11-20T15:13:24;13.45;;;7.55;;
75459;SDS011;64039;53.060;9.342;2022-11-20T15:15:58;13.57;;;7.88;;
75459;SDS011;64039;53.060;9.342;2022-11-20T15:18:30;12.68;;;7.75;;
75459;SDS011;64039;53.060;9.342;2022-11-20T15:21:02;15.20;;;8.10;;
75459;SDS011;64039;53.060;9.342;2022-11-20T15:23:30;13.68;;;7.60;;
75459;SDS011;64039;53.060;9.342;2022-11-20T15:25:55;12.95;;;7.93;;
75459;SDS011;64039;53.060;9.342;2022-11-20T15:30:57;13.52;;;7.53;;
75459;SDS011;64039;53.060;9.342;2022-11-20T15:33:22;14.20;;;7.93;;
75459;SDS011;64039;53.060;9.342;2022-11-20T15:35:48;13.82;;;7.55;;
75459;SDS011;64039;53.060;9.342;2022-11-20T15:38:13;13.73;;;8.18;;
75459;SDS011;64039;53.060;9.342;2022-11-20T15:40:39;12.55;;;7.45;;
75459;SDS011;64039;53.060;9.342;2022-11-20T15:43:05;13.07;;;8.02;;
75459;SDS011;64039;53.060;9.342;2022-11-20T15:48:13;16.25;;;7.97;;
75459;SDS011;64039;53.060;9.342;2022-11-20T15:50:52;39.92;;;18.77;;
75459;SDS011;64039;53.060;9.342;2022-11-20T15:53:24;31.45;;;14.57;;
75459;SDS011;64039;53.060;9.342;2022-11-20T15:55:49;25.77;;;13.43;;
75459;SDS011;64039;53.060;9.342;2022-11-20T15:58:15;20.90;;;11.32;;
75459;SDS011;64039;53.060;9.342;2022-11-20T16:00:43;16.77;;;9.63;;
75459;SDS011;64039;53.060;9.342;2022-11-20T16:03:10;15.82;;;8.98;;
75459;SDS011;64039;53.060;9.342;2022-11-20T16:05:36;17.45;;;8.63;;
75459;SDS011;64039;53.060;9.342;2022-11-20T16:08:02;16.98;;;8.68;;
75459;SDS011;64039;53.060;9.342;2022-11-20T16:10:28;13.50;;;8.43;;
75459;SDS011;64039;53.060;9.342;2022-11-20T16:12:53;15.38;;;7.65;;
75459;SDS011;64039;53.060;9.342;2022-11-20T16:15:37;15.65;;;8.40;;
75459;SDS011;64039;53.060;9.342;2022-11-20T16:18:14;14.88;;;8.60;;
75459;SDS011;64039;53.060;9.342;2022-11-20T16:20:41;18.85;;;10.35;;
75459;SDS011;64039;53.060;9.342;2022-11-20T16:23:08;18.92;;;9.52;;
75459;SDS011;64039;53.060;9.342;2022-11-20T16:25:34;16.33;;;8.65;;
75459;SDS011;64039;53.060;9.342;2022-11-20T16:27:59;13.25;;;8.45;;
75459;SDS011;64039;53.060;9.342;2022-11-20T16:30:25;14.60;;;8.15;;
75459;SDS011;64039;53.060;9.342;2022-11-20T16:32:51;15.23;;;8.35;;
75459;SDS011;64039;53.060;9.342;2022-11-20T16:35:16;17.20;;;9.07;;
75459;SDS011;64039;53.060;9.342;2022-11-20T16:37:42;14.00;;;7.90;;
75459;SDS011;64039;53.060;9.342;2022-11-20T16:40:08;20.00;;;9.95;;